createdAt,value
2018-01-14T00:01:16.852Z,64.00
2018-01-14T00:03:44.302Z,64.30
2018-01-14T00:06:11.776Z,64.40
2018-01-14T00:08:40.055Z,64.50
2018-01-14T00:11:07.486Z,64.50
2018-01-14T00:13:34.952Z,64.80
2018-01-14T00:16:03.198Z,64.30
2018-01-14T00:18:30.669Z,64.30
2018-01-14T00:20:58.139Z,64.50
2018-01-14T00:23:26.379Z,64.60
2018-01-14T00:25:53.853Z,64.50
2018-01-14T00:28:21.313Z,64.40
2018-01-14T00:30:48.781Z,64.60
2018-01-14T00:33:17.022Z,64.10
2018-01-14T00:35:44.474Z,64.10
2018-01-14T00:38:11.990Z,64.00
2018-01-14T00:40:40.208Z,64.80
2018-01-14T00:43:07.691Z,64.80
2018-01-14T00:45:35.940Z,64.70
2018-01-14T00:48:03.418Z,64.70
2018-01-14T00:50:30.895Z,64.80
2018-01-14T00:52:59.125Z,65.30
2018-01-14T00:55:26.610Z,65.30
2018-01-14T00:57:54.869Z,64.80
2018-01-14T01:00:23.842Z,64.80
2018-01-14T01:02:51.378Z,64.70
2018-01-14T01:05:18.869Z,65.00
2018-01-14T01:07:47.106Z,64.50
2018-01-14T01:10:14.570Z,64.60
2018-01-14T01:12:42.058Z,64.60
2018-01-14T01:15:09.541Z,65.10
2018-01-14T01:17:37.772Z,64.70
2018-01-14T01:20:05.226Z,64.70
2018-01-14T01:22:32.702Z,64.50
2018-01-14T01:25:00.157Z,64.60
2018-01-14T01:27:27.629Z,64.80
2018-01-14T01:29:55.309Z,65.10
2018-01-14T01:32:22.794Z,65.10
2018-01-14T01:34:50.283Z,65.30
2018-01-14T01:37:17.802Z,65.40
2018-01-14T01:39:45.263Z,65.30
2018-01-14T01:42:12.755Z,65.30
2018-01-14T01:44:40.212Z,65.60
2018-01-14T01:47:07.683Z,65.10
2018-01-14T01:49:35.911Z,65.00
2018-01-14T01:52:03.375Z,65.00
2018-01-14T01:54:30.834Z,65.10
2018-01-14T01:56:58.309Z,64.80
2018-01-14T01:59:25.840Z,64.90
2018-01-14T02:01:53.323Z,65.30
2018-01-14T02:04:20.797Z,65.50
2018-01-14T02:06:49.115Z,65.10
2018-01-14T02:09:16.595Z,65.10
2018-01-14T02:11:44.058Z,65.30
2018-01-14T02:14:11.555Z,65.20
2018-01-14T02:16:39.010Z,65.20
2018-01-14T02:19:06.545Z,65.20
2018-01-14T02:21:33.973Z,65.20
2018-01-14T02:24:01.450Z,64.80
2018-01-14T02:26:28.917Z,65.60
2018-01-14T02:28:57.219Z,64.40
2018-01-14T02:31:24.686Z,64.30
2018-01-14T02:33:52.153Z,64.90
2018-01-14T02:36:19.629Z,65.30
2018-01-14T02:38:47.097Z,65.30
2018-01-14T02:41:14.559Z,65.00
2018-01-14T02:43:42.802Z,65.00
2018-01-14T02:46:10.278Z,64.90
2018-01-14T02:48:37.761Z,64.70
2018-01-14T02:51:06.005Z,65.10
2018-01-14T02:53:33.464Z,65.10
2018-01-14T02:56:00.938Z,64.90
2018-01-14T02:58:29.175Z,64.80
2018-01-14T03:00:56.642Z,64.70
2018-01-14T03:03:25.621Z,64.90
2018-01-14T03:05:53.090Z,64.90
2018-01-14T03:08:22.082Z,65.40
2018-01-14T03:10:49.602Z,65.20
2018-01-14T03:13:17.075Z,65.00
2018-01-14T03:15:44.657Z,65.40
2018-01-14T03:18:12.129Z,65.40
2018-01-14T03:20:39.594Z,65.80
2018-01-14T03:23:07.842Z,65.00
2018-01-14T03:25:35.298Z,64.90
2018-01-14T03:28:02.780Z,65.00
2018-01-14T03:30:31.006Z,65.40
2018-01-14T03:32:58.474Z,65.20
2018-01-14T03:35:25.947Z,65.40
2018-01-14T03:37:53.422Z,65.30
2018-01-14T03:40:21.649Z,65.30
2018-01-14T03:42:49.127Z,65.30
2018-01-14T03:45:16.597Z,65.00
2018-01-14T03:47:44.813Z,65.10
2018-01-14T03:50:12.283Z,65.10
2018-01-14T03:52:39.774Z,65.10
2018-01-14T03:55:07.252Z,65.30
2018-01-14T03:57:35.518Z,65.40
2018-01-14T04:00:03.796Z,65.40
2018-01-14T04:02:31.270Z,65.30
2018-01-14T04:04:58.721Z,65.30
2018-01-14T04:07:26.191Z,65.00
2018-01-14T04:09:53.651Z,65.10
2018-01-14T04:12:21.115Z,65.30
2018-01-14T04:14:48.601Z,65.40
2018-01-14T04:17:16.169Z,65.60
2018-01-14T04:19:44.402Z,66.20
2018-01-14T04:22:11.874Z,65.30
2018-01-14T04:24:39.357Z,65.40
2018-01-14T04:27:06.822Z,65.80
2018-01-14T04:29:35.085Z,65.70
2018-01-14T04:32:03.323Z,66.20
2018-01-14T04:34:30.786Z,65.50
2018-01-14T04:36:58.251Z,65.60
2018-01-14T04:39:25.733Z,65.60
2018-01-14T04:41:53.963Z,65.60
2018-01-14T04:44:21.436Z,65.60
2018-01-14T04:46:48.884Z,65.40
2018-01-14T04:49:16.345Z,65.60
2018-01-14T04:51:43.806Z,65.80
2018-01-14T04:54:11.266Z,65.50
2018-01-14T04:56:38.743Z,65.40
2018-01-14T04:59:06.967Z,65.70
2018-01-14T05:01:34.442Z,65.60
2018-01-14T05:04:01.910Z,65.70
2018-01-14T05:06:29.382Z,65.50
2018-01-14T05:08:57.607Z,65.90
2018-01-14T05:11:25.090Z,65.90
2018-01-14T05:13:53.423Z,66.00
2018-01-14T05:16:20.915Z,65.90
2018-01-14T05:18:48.373Z,66.40
2018-01-14T05:21:15.893Z,66.10
2018-01-14T05:23:43.364Z,65.80
2018-01-14T05:26:10.834Z,65.90
2018-01-14T05:28:38.315Z,66.30
2018-01-14T05:31:05.779Z,66.40
2018-01-14T05:33:34.021Z,66.20
2018-01-14T05:36:01.486Z,66.20
2018-01-14T05:38:28.958Z,66.20
2018-01-14T05:40:57.192Z,66.10
2018-01-14T05:43:24.662Z,66.10
2018-01-14T05:45:52.114Z,65.80
2018-01-14T05:48:19.597Z,66.00
2018-01-14T05:50:47.049Z,66.20
2018-01-14T05:53:14.593Z,66.20
2018-01-14T05:55:42.548Z,65.80
2018-01-14T05:58:10.049Z,65.80
2018-01-14T06:00:38.280Z,66.10
2018-01-14T06:03:05.736Z,66.10
2018-01-14T06:05:33.213Z,66.40
2018-01-14T06:08:00.698Z,66.30
2018-01-14T06:10:28.991Z,66.30
2018-01-14T06:12:56.465Z,66.30
2018-01-14T06:15:23.979Z,66.20
2018-01-14T06:17:52.199Z,66.20
2018-01-14T06:20:19.679Z,66.10
2018-01-14T06:22:47.133Z,66.50
2018-01-14T06:25:15.376Z,66.10
2018-01-14T06:27:44.456Z,66.10
2018-01-14T06:30:11.919Z,66.20
2018-01-14T06:32:39.372Z,66.60
2018-01-14T06:35:08.870Z,66.50
2018-01-14T06:37:36.342Z,66.10
2018-01-14T06:40:03.824Z,65.80
2018-01-14T06:42:32.249Z,65.90
2018-01-14T06:44:59.711Z,65.90
2018-01-14T06:47:27.189Z,65.90
2018-01-14T06:49:55.765Z,66.30
2018-01-14T06:52:23.417Z,65.80
2018-01-14T06:54:50.912Z,65.80
2018-01-14T06:57:18.378Z,65.80
2018-01-14T06:59:45.841Z,65.80
2018-01-14T07:02:14.090Z,65.70
2018-01-14T07:04:41.558Z,65.60
2018-01-14T07:07:09.818Z,65.80
2018-01-14T07:09:37.286Z,65.80
2018-01-14T07:12:04.850Z,66.00
2018-01-14T07:14:32.315Z,66.10
2018-01-14T07:17:00.651Z,66.40
2018-01-14T07:19:28.125Z,66.20
2018-01-14T07:21:55.577Z,66.70
2018-01-14T07:24:26.641Z,67.20
2018-01-14T07:26:55.199Z,67.20
2018-01-14T07:29:23.338Z,67.30
2018-01-14T07:31:50.823Z,67.50
2018-01-14T07:34:18.311Z,67.50
2018-01-14T07:36:46.569Z,68.30
2018-01-14T07:39:14.037Z,68.30
2018-01-14T07:41:41.507Z,68.60
2018-01-14T07:44:09.738Z,69.20
2018-01-14T07:46:37.927Z,69.10
2018-01-14T07:49:05.391Z,69.00
2018-01-14T07:51:33.653Z,69.70
2018-01-14T07:54:01.140Z,69.10
2018-01-14T07:56:29.378Z,69.10
2018-01-14T07:58:56.857Z,69.10
2018-01-14T08:01:25.086Z,69.00
2018-01-14T08:03:52.567Z,69.00
2018-01-14T08:06:20.043Z,68.80
2018-01-14T08:08:48.289Z,67.30
2018-01-14T08:11:15.810Z,67.90
2018-01-14T08:13:43.292Z,67.80
2018-01-14T08:16:10.780Z,67.40
2018-01-14T08:18:39.003Z,66.30
2018-01-14T08:21:06.498Z,66.20
2018-01-14T08:23:33.979Z,65.80
2018-01-14T08:26:02.216Z,64.50
2018-01-14T08:28:29.685Z,64.50
2018-01-14T08:30:57.168Z,63.90
2018-01-14T08:33:25.404Z,62.30
2018-01-14T08:35:52.894Z,62.30
2018-01-14T08:38:21.140Z,61.50
2018-01-14T08:40:48.652Z,61.40
2018-01-14T08:43:16.102Z,61.30
2018-01-14T08:45:43.667Z,60.60
2018-01-14T08:48:11.133Z,59.80
2018-01-14T08:50:38.619Z,58.80
2018-01-14T08:53:06.134Z,57.80
2018-01-14T08:55:33.598Z,57.50
2018-01-14T08:58:01.060Z,57.10
2018-01-14T09:00:28.542Z,56.70
2018-01-14T09:02:56.017Z,56.00
2018-01-14T09:05:23.479Z,55.50
2018-01-14T09:07:51.777Z,54.50
2018-01-14T09:10:19.999Z,54.20
2018-01-14T09:12:47.467Z,54.20
2018-01-14T09:15:15.751Z,53.20
2018-01-14T09:17:44.068Z,53.20
2018-01-14T09:20:12.960Z,53.20
2018-01-14T09:22:40.556Z,52.50
2018-01-14T09:25:08.007Z,51.80
2018-01-14T09:27:35.487Z,51.50
2018-01-14T09:30:02.948Z,51.80
2018-01-14T09:32:31.258Z,51.90
2018-01-14T09:34:58.711Z,51.30
2018-01-14T09:37:26.176Z,51.40
2018-01-14T09:39:53.840Z,50.90
2018-01-14T09:42:21.293Z,50.70
2018-01-14T09:44:48.786Z,50.70
2018-01-14T09:47:16.402Z,49.50
2018-01-14T09:49:43.871Z,48.60
2018-01-14T09:52:11.335Z,48.50
2018-01-14T09:54:38.814Z,48.40
2018-01-14T09:57:06.283Z,47.10
2018-01-14T09:59:34.547Z,47.70
2018-01-14T10:02:02.070Z,47.50
2018-01-14T10:04:29.546Z,47.70
2018-01-14T10:06:57.018Z,47.30
2018-01-14T10:09:24.508Z,46.80
2018-01-14T10:11:52.026Z,47.50
2018-01-14T10:14:19.494Z,47.20
2018-01-14T10:16:47.747Z,47.90
2018-01-14T10:19:15.210Z,47.80
2018-01-14T10:21:42.683Z,47.90
2018-01-14T10:24:10.178Z,48.20
2018-01-14T10:26:37.646Z,49.10
2018-01-14T10:29:05.106Z,48.20
2018-01-14T10:31:32.595Z,48.50
2018-01-14T10:34:00.055Z,48.40
2018-01-14T10:36:27.533Z,48.30
2018-01-14T10:38:55.757Z,49.70
2018-01-14T10:41:23.234Z,49.70
2018-01-14T10:43:50.714Z,49.60
2018-01-14T10:46:18.974Z,49.80
2018-01-14T10:48:46.437Z,49.70
2018-01-14T10:51:14.661Z,50.10
2018-01-14T10:53:42.158Z,50.10
2018-01-14T10:56:10.504Z,51.30
2018-01-14T10:58:38.012Z,51.70
2018-01-14T11:01:05.489Z,52.50
2018-01-14T11:03:32.943Z,52.70
2018-01-14T11:06:00.421Z,53.40
2018-01-14T11:08:27.888Z,53.20
2018-01-14T11:10:55.371Z,54.20
2018-01-14T11:13:22.871Z,54.80
2018-01-14T11:15:50.351Z,55.40
2018-01-14T11:18:17.808Z,56.10
2018-01-14T11:20:45.310Z,56.30
2018-01-14T11:23:13.557Z,56.90
2018-01-14T11:25:41.790Z,56.90
2018-01-14T11:28:09.296Z,56.90
2018-01-14T11:30:36.769Z,57.00
2018-01-14T11:33:04.997Z,57.00
2018-01-14T11:35:32.469Z,57.60
2018-01-14T11:37:59.964Z,57.10
2018-01-14T11:40:28.299Z,57.90
2018-01-14T11:42:55.731Z,57.80
2018-01-14T11:45:23.210Z,57.80
2018-01-14T11:47:50.689Z,58.10
2018-01-14T11:50:18.155Z,58.30
2018-01-14T11:52:46.406Z,57.50
2018-01-14T11:55:13.977Z,57.50
2018-01-14T11:57:42.202Z,57.70
2018-01-14T12:00:09.688Z,57.70
2018-01-14T12:02:37.961Z,58.00
2018-01-14T12:05:05.455Z,58.50
2018-01-14T12:07:32.968Z,57.80
2018-01-14T12:10:00.470Z,57.50
2018-01-14T12:12:27.940Z,57.30
2018-01-14T12:14:55.496Z,57.60
2018-01-14T12:17:22.994Z,57.70
2018-01-14T12:19:50.514Z,57.70
2018-01-14T12:22:18.074Z,58.00
2018-01-14T12:24:45.570Z,57.30
2018-01-14T12:27:13.119Z,57.30
2018-01-14T12:29:40.634Z,57.30
2018-01-14T12:32:08.200Z,57.20
2018-01-14T12:34:40.636Z,57.20
2018-01-14T12:37:08.886Z,57.20
2018-01-14T12:39:36.378Z,57.10
2018-01-14T12:42:03.882Z,56.80
2018-01-14T12:44:31.361Z,56.60
2018-01-14T12:46:58.858Z,56.50
2018-01-14T12:49:26.340Z,56.40
2018-01-14T12:51:53.874Z,56.60
2018-01-14T12:54:21.421Z,56.80
2018-01-14T12:56:48.929Z,56.50
2018-01-14T12:59:16.421Z,57.00
2018-01-14T13:01:44.654Z,56.90
2018-01-14T13:04:12.141Z,56.90
2018-01-14T13:06:39.620Z,56.90
2018-01-14T13:09:07.115Z,57.60
2018-01-14T13:11:34.599Z,57.70
2018-01-14T13:14:02.089Z,57.20
2018-01-14T13:16:29.560Z,57.10
2018-01-14T13:18:57.052Z,57.20
2018-01-14T13:21:24.557Z,57.10
2018-01-14T13:23:52.849Z,57.10
2018-01-14T13:26:20.315Z,57.10
2018-01-14T13:28:47.800Z,57.20
2018-01-14T13:31:15.305Z,57.40
2018-01-14T13:33:43.568Z,57.60
2018-01-14T13:36:11.816Z,57.70
2018-01-14T13:38:39.299Z,57.60
2018-01-14T13:41:06.782Z,58.10
2018-01-14T13:43:34.257Z,58.30
2018-01-14T13:46:01.759Z,58.60
2018-01-14T13:48:30.065Z,58.70
2018-01-14T13:50:57.554Z,58.70
2018-01-14T13:53:25.044Z,58.80
2018-01-14T13:55:53.302Z,58.40
2018-01-14T13:58:20.776Z,58.40
2018-01-14T14:00:49.029Z,58.50
2018-01-14T14:03:16.509Z,58.50
2018-01-14T14:05:44.761Z,58.90
2018-01-14T14:08:12.248Z,58.90
2018-01-14T14:10:40.501Z,59.00
2018-01-14T14:13:07.982Z,59.00
2018-01-14T14:15:36.204Z,59.30
2018-01-14T14:18:03.702Z,59.10
2018-01-14T14:20:31.186Z,58.90
2018-01-14T14:22:58.691Z,58.70
2018-01-14T14:25:26.261Z,58.60
2018-01-14T14:27:54.521Z,59.40
2018-01-14T14:30:22.035Z,58.90
2018-01-14T14:32:49.567Z,58.80
2018-01-14T14:35:17.800Z,59.00
2018-01-14T14:37:45.298Z,59.00
2018-01-14T14:40:13.585Z,58.90
2018-01-14T14:42:41.061Z,58.90
2018-01-14T14:45:08.578Z,59.00
2018-01-14T14:47:36.048Z,59.00
2018-01-14T14:50:03.578Z,59.10
2018-01-14T14:52:31.072Z,59.40
2018-01-14T14:54:58.570Z,58.90
2018-01-14T14:57:26.053Z,59.30
2018-01-14T14:59:54.306Z,59.40
2018-01-14T15:02:21.782Z,59.30
2018-01-14T15:04:50.021Z,59.60
2018-01-14T15:07:17.522Z,59.60
2018-01-14T15:09:45.763Z,60.00
2018-01-14T15:12:13.248Z,60.00
2018-01-14T15:14:41.504Z,59.80
2018-01-14T15:17:09.003Z,59.80
2018-01-14T15:19:36.516Z,59.60
2018-01-14T15:22:03.987Z,59.50
2018-01-14T15:24:32.275Z,59.70
2018-01-14T15:26:59.754Z,59.60
2018-01-14T15:29:27.268Z,59.90
2018-01-14T15:31:54.766Z,60.10
2018-01-14T15:34:22.237Z,60.30
2018-01-14T15:36:49.742Z,60.90
2018-01-14T15:39:17.988Z,61.50
2018-01-14T15:41:45.488Z,61.50
2018-01-14T15:44:13.018Z,62.00
2018-01-14T15:46:40.510Z,62.10
2018-01-14T15:49:07.992Z,62.50
2018-01-14T15:51:35.464Z,62.60
2018-01-14T15:54:02.955Z,63.00
2018-01-14T15:56:31.210Z,63.50
2018-01-14T15:58:58.699Z,63.50
2018-01-14T16:01:26.164Z,63.50
2018-01-14T16:03:53.637Z,63.70
2018-01-14T16:06:21.289Z,63.80
2018-01-14T16:08:48.780Z,64.30
2018-01-14T16:11:16.251Z,64.50
2018-01-14T16:13:43.758Z,64.60
2018-01-14T16:16:11.216Z,64.70
2018-01-14T16:18:38.712Z,65.00
2018-01-14T16:21:06.212Z,64.90
2018-01-14T16:23:33.720Z,65.10
2018-01-14T16:26:01.282Z,65.20
2018-01-14T16:28:28.751Z,65.30
2018-01-14T16:30:56.244Z,65.80
2018-01-14T16:33:23.709Z,66.00
2018-01-14T16:35:51.223Z,66.30
2018-01-14T16:38:18.825Z,66.30
2018-01-14T16:40:46.335Z,66.50
2018-01-14T16:43:13.803Z,66.60
2018-01-14T16:45:42.053Z,66.90
2018-01-14T16:48:09.570Z,66.90
2018-01-14T16:50:37.044Z,67.10
2018-01-14T16:53:04.554Z,67.20
2018-01-14T16:55:32.836Z,67.20
2018-01-14T16:58:00.317Z,67.20
2018-01-14T17:00:27.851Z,67.40
2018-01-14T17:02:55.410Z,67.50
2018-01-14T17:05:22.875Z,67.50
2018-01-14T17:07:50.416Z,67.60
2018-01-14T17:10:17.947Z,68.00
2018-01-14T17:12:45.430Z,68.10
2018-01-14T17:15:13.003Z,68.20
2018-01-14T17:17:40.506Z,68.20
2018-01-14T17:20:07.984Z,68.50
2018-01-14T17:22:35.469Z,68.70
2018-01-14T17:25:02.965Z,68.70
2018-01-14T17:27:30.484Z,69.00
2018-01-14T17:29:57.955Z,69.10
2018-01-14T17:32:25.468Z,69.10
2018-01-14T17:34:53.760Z,69.30
2018-01-14T17:37:21.234Z,69.10
2018-01-14T17:39:48.732Z,69.30
2018-01-14T17:42:17.022Z,69.50
2018-01-14T17:44:44.534Z,69.50
2018-01-14T17:47:12.046Z,70.20
2018-01-14T17:49:40.302Z,70.40
2018-01-14T17:52:07.784Z,69.70
2018-01-14T17:54:35.272Z,70.00
2018-01-14T17:57:02.815Z,70.00
2018-01-14T17:59:30.330Z,70.10
2018-01-14T18:01:58.585Z,70.30
2018-01-14T18:04:26.071Z,70.30
2018-01-14T18:06:57.425Z,69.70
2018-01-14T18:09:25.693Z,70.20
2018-01-14T18:11:53.955Z,70.20
2018-01-14T18:14:21.435Z,70.20
2018-01-14T18:17:00.078Z,70.10
2018-01-14T18:19:27.591Z,70.10
2018-01-14T18:21:55.854Z,70.40
2018-01-14T18:24:23.334Z,70.40
2018-01-14T18:26:51.590Z,70.30
2018-01-14T18:29:19.068Z,70.30
2018-01-14T18:31:47.349Z,70.40
2018-01-14T18:34:15.581Z,70.40
2018-01-14T18:36:43.048Z,70.40
2018-01-14T18:39:10.557Z,70.60
2018-01-14T18:41:38.218Z,70.50
2018-01-14T18:44:05.701Z,70.60
2018-01-14T18:46:33.183Z,70.70
2018-01-14T18:49:01.431Z,70.60
2018-01-14T18:51:29.018Z,70.60
2018-01-14T18:53:57.256Z,71.20
2018-01-14T18:56:24.736Z,71.10
2018-01-14T18:58:52.223Z,71.10
2018-01-14T19:01:19.702Z,71.30
2018-01-14T19:03:47.277Z,71.40
2018-01-14T19:06:14.839Z,71.60
2018-01-14T19:08:42.335Z,71.70
2018-01-14T19:11:10.575Z,72.00
2018-01-14T19:13:38.082Z,71.90
2018-01-14T19:16:05.571Z,72.00
2018-01-14T19:18:33.049Z,72.20
2018-01-14T19:21:00.664Z,72.00
2018-01-14T19:23:28.161Z,72.10
2018-01-14T19:25:55.653Z,72.20
2018-01-14T19:28:23.883Z,72.20
2018-01-14T19:30:51.368Z,72.20
2018-01-14T19:33:18.986Z,72.40
2018-01-14T19:35:46.462Z,72.40
2018-01-14T19:38:13.980Z,72.50
2018-01-14T19:40:41.447Z,72.60
2018-01-14T19:43:09.128Z,72.60
2018-01-14T19:45:36.582Z,72.90
2018-01-14T19:48:04.071Z,73.00
2018-01-14T19:50:31.527Z,73.10
2018-01-14T19:52:59.802Z,73.20
2018-01-14T19:55:27.278Z,73.20
2018-01-14T19:57:54.797Z,73.10
2018-01-14T20:00:23.181Z,73.20
2018-01-14T20:02:51.432Z,73.30
2018-01-14T20:05:19.216Z,73.20
2018-01-14T20:07:46.700Z,73.20
2018-01-14T20:10:15.098Z,73.20
2018-01-14T20:12:43.655Z,73.20
2018-01-14T20:15:11.943Z,73.10
2018-01-14T20:17:42.153Z,73.10
2018-01-14T20:20:09.873Z,73.10
2018-01-14T20:22:38.192Z,72.90
2018-01-14T20:25:07.387Z,73.00
2018-01-14T20:27:35.664Z,73.10
2018-01-14T20:30:03.969Z,73.00
2018-01-14T20:32:31.602Z,73.00
2018-01-14T20:34:59.182Z,73.00
2018-01-14T20:37:26.691Z,73.00
2018-01-14T20:39:55.630Z,73.00
2018-01-14T20:42:23.144Z,73.10
2018-01-14T20:44:55.366Z,73.10
2018-01-14T20:47:22.864Z,73.10
2018-01-14T20:49:50.591Z,73.20
2018-01-14T20:52:18.117Z,73.00
2018-01-14T20:54:45.633Z,73.00
2018-01-14T20:57:13.384Z,73.30
2018-01-14T20:59:40.867Z,73.20
2018-01-14T21:02:09.139Z,73.30
2018-01-14T21:04:36.626Z,73.30
2018-01-14T21:07:04.134Z,73.30
2018-01-14T21:09:31.651Z,73.30
2018-01-14T21:11:59.128Z,73.40
2018-01-14T21:14:26.623Z,73.50
2018-01-14T21:16:55.001Z,73.60
2018-01-14T21:19:22.581Z,73.60
2018-01-14T21:21:50.058Z,73.70
2018-01-14T21:24:17.570Z,73.70
2018-01-14T21:26:45.808Z,73.80
2018-01-14T21:29:13.444Z,73.80
2018-01-14T21:31:40.924Z,73.80
2018-01-14T21:34:08.400Z,73.70
2018-01-14T21:36:35.892Z,73.70
2018-01-14T21:39:03.372Z,73.70
2018-01-14T21:41:30.854Z,73.70
2018-01-14T21:43:58.359Z,73.80
2018-01-14T21:46:25.841Z,73.90
2018-01-14T21:48:53.310Z,74.00
2018-01-14T21:51:20.837Z,73.90
2018-01-14T21:53:49.035Z,74.30
2018-01-14T21:56:16.491Z,74.20
2018-01-14T21:58:43.962Z,74.10
2018-01-14T22:01:11.438Z,74.20
2018-01-14T22:03:38.924Z,74.30
2018-01-14T22:06:06.493Z,74.90
2018-01-14T22:08:33.997Z,74.10
2018-01-14T22:11:01.501Z,74.20
2018-01-14T22:13:28.999Z,74.30
2018-01-14T22:15:56.477Z,74.30
2018-01-14T22:18:23.966Z,74.40
2018-01-14T22:20:51.436Z,74.40
2018-01-14T22:23:18.908Z,74.30
2018-01-14T22:25:46.388Z,74.10
2018-01-14T22:28:13.864Z,74.40
2018-01-14T22:30:42.125Z,74.10
2018-01-14T22:33:09.593Z,74.10
2018-01-14T22:35:37.841Z,74.30
2018-01-14T22:38:05.322Z,74.10
2018-01-14T22:40:33.572Z,74.10
2018-01-14T22:43:01.111Z,74.10
2018-01-14T22:45:28.582Z,74.00
2018-01-14T22:47:56.107Z,74.00
2018-01-14T22:50:23.566Z,74.20
2018-01-14T22:52:51.090Z,74.10
2018-01-14T22:55:19.378Z,74.80
2018-01-14T22:57:46.859Z,74.10
2018-01-14T23:00:14.346Z,74.00
2018-01-14T23:02:41.847Z,73.90
2018-01-14T23:05:10.080Z,73.90
2018-01-14T23:07:37.576Z,73.90
2018-01-14T23:10:05.031Z,73.80
2018-01-14T23:12:32.663Z,73.70
2018-01-14T23:15:05.954Z,73.70
2018-01-14T23:17:33.545Z,73.70
2018-01-14T23:20:01.040Z,74.40
2018-01-14T23:22:28.578Z,73.90
2018-01-14T23:24:56.794Z,73.40
2018-01-14T23:27:24.282Z,73.40
2018-01-14T23:29:51.749Z,73.30
2018-01-14T23:32:19.418Z,72.90
2018-01-14T23:34:46.908Z,72.90
2018-01-14T23:37:14.455Z,72.60
2018-01-14T23:39:41.938Z,72.20
2018-01-14T23:42:09.419Z,71.90
2018-01-14T23:44:36.903Z,71.70
2018-01-14T23:47:04.379Z,71.60
2018-01-14T23:49:31.851Z,71.50
2018-01-14T23:51:59.348Z,71.10
2018-01-14T23:54:28.054Z,71.10
2018-01-14T23:56:55.521Z,70.50
2018-01-14T23:59:23.025Z,70.30
